Terminal Aerodrome Forecast
Issued by NWS Charleston, SC

Home | Current Version | Previous Version | Text Only | Print | Product List | Glossary On
Versions: 1 2 3 4 5 6 7 8 9 10 11 12 13 14 15 16 17 18 19 20 21 22
187
FTUS42 KCHS 231737
TAFSAV
TAF
KSAV 231737Z 2318/2418 18010KT P6SM SCT025
     FM232100 17012KT P6SM SCT050
     FM232300 21007KT P6SM SCT040=

USA.gov is the U.S. government's official web portal to all federal, state and local government web resources and services.